CLW94A VLVT-VECC
Flight info
| Callsign | CLW94A |
|---|---|
| Flight time | 2h 22m |
| Altitude | 36000 |
| Route | BOK1B ANBOK R207 MDY B465 SUMAG SUMAG2G |
| Aircraft | B738/M-SDE2E3FGHIRWXY/LB1 |
Departure
| Time | 2026-05-08 21:24 |
|---|---|
| Airport | Wattay International Airport (VLVT) |
Arrival
| Time | 2026-05-08 23:47 |
|---|---|
| Airport | Netaji Subhash Chandra Bose International Airport (VECC) |
| Time | Latitude | Longitude | Altitude | Speed | Heading |
|---|---|---|---|---|---|
| 2026-05-08 21:10 | 17.97631 | 102.56880 | 562 ft | 0 kts | 225° |
| 2026-05-08 21:14 | 17.97638 | 102.56888 | 572 ft | 2 kts | 225° |
| 2026-05-08 21:14 | 17.97650 | 102.56900 | 569 ft | 2 kts | 224° |
| 2026-05-08 21:14 | 17.97662 | 102.56912 | 565 ft | 2 kts | 224° |
| 2026-05-08 21:14 | 17.97674 | 102.56924 | 565 ft | 2 kts | 230° |
| 2026-05-08 21:15 | 17.97676 | 102.56940 | 570 ft | 2 kts | 291° |
| 2026-05-08 21:15 | 17.97669 | 102.56955 | 566 ft | 2 kts | 305° |
| 2026-05-08 21:15 | 17.97662 | 102.56965 | 569 ft | 1 kts | 311° |
| 2026-05-08 21:17 | 17.97687 | 102.56944 | 567 ft | 11 kts | 334° |
| 2026-05-08 21:17 | 17.97755 | 102.56950 | 565 ft | 5 kts | 44° |
| 2026-05-08 21:17 | 17.97802 | 102.56960 | 568 ft | 10 kts | 341° |
| 2026-05-08 21:17 | 17.97872 | 102.56918 | 566 ft | 13 kts | 316° |
| 2026-05-08 21:18 | 17.97948 | 102.56840 | 568 ft | 17 kts | 315° |
| 2026-05-08 21:18 | 17.98038 | 102.56747 | 568 ft | 19 kts | 315° |
| 2026-05-08 21:18 | 17.98138 | 102.56643 | 563 ft | 21 kts | 316° |
| 2026-05-08 21:18 | 17.98241 | 102.56538 | 566 ft | 20 kts | 316° |
| 2026-05-08 21:19 | 17.98342 | 102.56436 | 563 ft | 20 kts | 315° |
| 2026-05-08 21:19 | 17.98438 | 102.56337 | 568 ft | 19 kts | 315° |
| 2026-05-08 21:19 | 17.98531 | 102.56241 | 562 ft | 18 kts | 315° |
| 2026-05-08 21:19 | 17.98627 | 102.56156 | 567 ft | 18 kts | 337° |
| 2026-05-08 21:20 | 17.98744 | 102.56120 | 569 ft | 17 kts | 344° |
| 2026-05-08 21:20 | 17.98863 | 102.56085 | 566 ft | 20 kts | 344° |
| 2026-05-08 21:20 | 17.99002 | 102.56043 | 568 ft | 21 kts | 345° |
| 2026-05-08 21:20 | 17.99137 | 102.55997 | 564 ft | 20 kts | 332° |
| 2026-05-08 21:21 | 17.99242 | 102.55903 | 566 ft | 20 kts | 314° |
| 2026-05-08 21:21 | 17.99338 | 102.55801 | 561 ft | 21 kts | 315° |
| 2026-05-08 21:21 | 17.99459 | 102.55678 | 566 ft | 27 kts | 315° |
| 2026-05-08 21:21 | 17.99599 | 102.55534 | 562 ft | 28 kts | 315° |
| 2026-05-08 21:22 | 17.99682 | 102.55400 | 562 ft | 21 kts | 285° |
| 2026-05-08 21:22 | 17.99764 | 102.55314 | 565 ft | 3 kts | 12° |
| 2026-05-08 21:22 | 17.99780 | 102.55332 | 560 ft | 5 kts | 68° |
| 2026-05-08 21:22 | 17.99763 | 102.55363 | 565 ft | 0 kts | 135° |
| 2026-05-08 21:23 | 17.99760 | 102.55367 | 563 ft | 6 kts | 135° |
| 2026-05-08 21:23 | 17.99656 | 102.55475 | 559 ft | 40 kts | 135° |
| 2026-05-08 21:23 | 17.99307 | 102.55838 | 569 ft | 104 kts | 135° |
| 2026-05-08 21:23 | 17.98642 | 102.56525 | 562 ft | 162 kts | 135° |
| 2026-05-08 21:24 | 17.97798 | 102.57376 | 1117 ft | 168 kts | 135° |
| 2026-05-08 21:24 | 17.97207 | 102.58495 | 1556 ft | 193 kts | 101° |
| 2026-05-08 21:24 | 17.97469 | 102.59935 | 1797 ft | 209 kts | 52° |
| 2026-05-08 21:24 | 17.98650 | 102.60683 | 2741 ft | 199 kts | 12° |
| 2026-05-08 21:25 | 17.99997 | 102.60525 | 3695 ft | 199 kts | 337° |
| 2026-05-08 21:25 | 18.01031 | 102.59565 | 4451 ft | 206 kts | 297° |
| 2026-05-08 21:25 | 18.01288 | 102.58075 | 5017 ft | 219 kts | 266° |
| 2026-05-08 21:25 | 18.01206 | 102.56390 | 5243 ft | 242 kts | 265° |
| 2026-05-08 21:26 | 18.01119 | 102.54591 | 5734 ft | 250 kts | 268° |
| 2026-05-08 21:26 | 18.01514 | 102.52781 | 6239 ft | 262 kts | 293° |
| 2026-05-08 21:26 | 18.02310 | 102.51022 | 6864 ft | 270 kts | 295° |
| 2026-05-08 21:26 | 18.03126 | 102.49281 | 7735 ft | 267 kts | 295° |
| 2026-05-08 21:27 | 18.03950 | 102.47522 | 8567 ft | 270 kts | 295° |
| 2026-05-08 21:27 | 18.04804 | 102.45690 | 9008 ft | 289 kts | 295° |
| 2026-05-08 21:27 | 18.05695 | 102.43765 | 9674 ft | 296 kts | 295° |
| 2026-05-08 21:27 | 18.06598 | 102.41808 | 10428 ft | 299 kts | 295° |
| 2026-05-08 21:28 | 18.07505 | 102.39832 | 11181 ft | 302 kts | 294° |
| 2026-05-08 21:28 | 18.08421 | 102.37832 | 11910 ft | 305 kts | 294° |
| 2026-05-08 21:28 | 18.09346 | 102.35809 | 12630 ft | 309 kts | 294° |
| 2026-05-08 21:28 | 18.10283 | 102.33754 | 13340 ft | 313 kts | 294° |
| 2026-05-08 21:29 | 18.11227 | 102.31681 | 14028 ft | 316 kts | 294° |
| 2026-05-08 21:29 | 18.12183 | 102.29582 | 14662 ft | 320 kts | 294° |
| 2026-05-08 21:29 | 18.13149 | 102.27458 | 15291 ft | 324 kts | 294° |
| 2026-05-08 21:29 | 18.14125 | 102.25311 | 15924 ft | 327 kts | 294° |
| 2026-05-08 21:30 | 18.15112 | 102.23140 | 16534 ft | 331 kts | 294° |
| 2026-05-08 21:30 | 18.16109 | 102.20942 | 17163 ft | 335 kts | 294° |
| 2026-05-08 21:30 | 18.17105 | 102.18749 | 17778 ft | 338 kts | 294° |
| 2026-05-08 21:30 | 18.18126 | 102.16500 | 18359 ft | 342 kts | 294° |
| 2026-05-08 21:31 | 18.19156 | 102.14228 | 18891 ft | 346 kts | 294° |
| 2026-05-08 21:31 | 18.20194 | 102.11939 | 19430 ft | 348 kts | 294° |
| 2026-05-08 21:31 | 18.21242 | 102.09628 | 19962 ft | 351 kts | 294° |
| 2026-05-08 21:31 | 18.22300 | 102.07294 | 20492 ft | 355 kts | 294° |
| 2026-05-08 21:32 | 18.23363 | 102.04946 | 21031 ft | 358 kts | 294° |
| 2026-05-08 21:32 | 18.24440 | 102.02568 | 21519 ft | 363 kts | 294° |
| 2026-05-08 21:32 | 18.25537 | 102.00142 | 21827 ft | 373 kts | 295° |
| 2026-05-08 21:32 | 18.26677 | 101.97621 | 21910 ft | 389 kts | 295° |
| 2026-05-08 21:33 | 18.27861 | 101.95002 | 22013 ft | 403 kts | 295° |
| 2026-05-08 21:33 | 18.29083 | 101.92296 | 22097 ft | 416 kts | 295° |
| 2026-05-08 21:33 | 18.30342 | 101.89510 | 22181 ft | 428 kts | 295° |
| 2026-05-08 21:33 | 18.31638 | 101.86640 | 22260 ft | 438 kts | 295° |
| 2026-05-08 21:34 | 18.32939 | 101.83758 | 22462 ft | 444 kts | 295° |
| 2026-05-08 21:34 | 18.34270 | 101.80809 | 22831 ft | 446 kts | 295° |
| 2026-05-08 21:34 | 18.35602 | 101.77857 | 23233 ft | 447 kts | 295° |
| 2026-05-08 21:34 | 18.36935 | 101.74899 | 23562 ft | 449 kts | 295° |
| 2026-05-08 21:35 | 18.38278 | 101.71918 | 23828 ft | 451 kts | 295° |
| 2026-05-08 21:35 | 18.39625 | 101.68926 | 24114 ft | 453 kts | 295° |
| 2026-05-08 21:35 | 18.40974 | 101.65929 | 24421 ft | 453 kts | 295° |
| 2026-05-08 21:35 | 18.42324 | 101.62926 | 24728 ft | 454 kts | 295° |
| 2026-05-08 21:36 | 18.43679 | 101.59911 | 25017 ft | 455 kts | 295° |
| 2026-05-08 21:36 | 18.45035 | 101.56893 | 25292 ft | 457 kts | 295° |
| 2026-05-08 21:36 | 18.46395 | 101.53864 | 25562 ft | 458 kts | 294° |
| 2026-05-08 21:36 | 18.47758 | 101.50827 | 25828 ft | 459 kts | 294° |
| 2026-05-08 21:37 | 18.49127 | 101.47774 | 26097 ft | 460 kts | 294° |
| 2026-05-08 21:37 | 18.50493 | 101.44729 | 26436 ft | 459 kts | 294° |
| 2026-05-08 21:37 | 18.51394 | 101.42718 | 26714 ft | 458 kts | 294° |
| 2026-05-08 21:37 | 18.52751 | 101.39688 | 27158 ft | 454 kts | 294° |
| 2026-05-08 21:38 | 18.54093 | 101.36691 | 27631 ft | 451 kts | 294° |
| 2026-05-08 21:38 | 18.55858 | 101.32748 | 28217 ft | 447 kts | 294° |
| 2026-05-08 21:38 | 18.57182 | 101.29785 | 28637 ft | 446 kts | 294° |
| 2026-05-08 21:38 | 18.58502 | 101.26832 | 29035 ft | 444 kts | 294° |
| 2026-05-08 21:39 | 18.59391 | 101.24843 | 29319 ft | 443 kts | 294° |
| 2026-05-08 21:39 | 18.60700 | 101.21911 | 29754 ft | 441 kts | 294° |
| 2026-05-08 21:39 | 18.61999 | 101.19038 | 30182 ft | 439 kts | 295° |
| 2026-05-08 21:39 | 18.63336 | 101.16154 | 30555 ft | 437 kts | 295° |
| 2026-05-08 21:40 | 18.64681 | 101.13276 | 30893 ft | 436 kts | 295° |
| 2026-05-08 21:40 | 18.66020 | 101.10413 | 31253 ft | 434 kts | 295° |
| 2026-05-08 21:40 | 18.67350 | 101.07564 | 31627 ft | 432 kts | 295° |
| 2026-05-08 21:41 | 18.69989 | 101.01883 | 32322 ft | 430 kts | 295° |
| 2026-05-08 21:41 | 18.71301 | 100.99051 | 32674 ft | 429 kts | 295° |
| 2026-05-08 21:41 | 18.72608 | 100.96229 | 33027 ft | 428 kts | 295° |
| 2026-05-08 21:41 | 18.73912 | 100.93409 | 33334 ft | 428 kts | 295° |
| 2026-05-08 21:42 | 18.75215 | 100.90592 | 33673 ft | 427 kts | 294° |
| 2026-05-08 21:42 | 18.76517 | 100.87776 | 34006 ft | 426 kts | 294° |
| 2026-05-08 21:42 | 18.77815 | 100.84969 | 34288 ft | 425 kts | 294° |
| 2026-05-08 21:42 | 18.79108 | 100.82166 | 34566 ft | 424 kts | 293° |
| 2026-05-08 21:43 | 18.80137 | 100.79267 | 34838 ft | 422 kts | 284° |
| 2026-05-08 21:43 | 18.80741 | 100.76243 | 35107 ft | 420 kts | 277° |
| 2026-05-08 21:43 | 18.80909 | 100.73173 | 35358 ft | 419 kts | 269° |
| 2026-05-08 21:43 | 18.80849 | 100.70098 | 35620 ft | 418 kts | 268° |
| 2026-05-08 21:44 | 18.80763 | 100.67072 | 35872 ft | 417 kts | 268° |
| 2026-05-08 21:44 | 18.80673 | 100.63999 | 35914 ft | 422 kts | 268° |
| 2026-05-08 21:44 | 18.80516 | 100.57788 | 35927 ft | 423 kts | 268° |
| 2026-05-08 21:45 | 18.80385 | 100.51620 | 35925 ft | 417 kts | 268° |
| 2026-05-08 21:45 | 18.80262 | 100.45514 | 35937 ft | 416 kts | 268° |
| 2026-05-08 21:46 | 18.80136 | 100.39419 | 35936 ft | 415 kts | 268° |
| 2026-05-08 21:46 | 18.80008 | 100.33327 | 35939 ft | 415 kts | 268° |
| 2026-05-08 21:47 | 18.79878 | 100.27231 | 35941 ft | 416 kts | 268° |
| 2026-05-08 21:47 | 18.79746 | 100.21156 | 35942 ft | 417 kts | 268° |
| 2026-05-08 21:48 | 18.79611 | 100.15025 | 35945 ft | 419 kts | 268° |
| 2026-05-08 21:48 | 18.79473 | 100.08869 | 35945 ft | 420 kts | 268° |
| 2026-05-08 21:49 | 18.79334 | 100.02690 | 35949 ft | 422 kts | 268° |
| 2026-05-08 21:49 | 18.79192 | 99.96489 | 35948 ft | 423 kts | 268° |
| 2026-05-08 21:50 | 18.79049 | 99.90263 | 35945 ft | 425 kts | 268° |
| 2026-05-08 21:50 | 18.78904 | 99.84026 | 35949 ft | 425 kts | 268° |
| 2026-05-08 21:51 | 18.78756 | 99.77777 | 35947 ft | 426 kts | 268° |
| 2026-05-08 21:51 | 18.78605 | 99.71527 | 35949 ft | 426 kts | 268° |
| 2026-05-08 21:52 | 18.78453 | 99.65269 | 35960 ft | 426 kts | 268° |
| 2026-05-08 21:52 | 18.78298 | 99.59009 | 35956 ft | 426 kts | 268° |
| 2026-05-08 21:53 | 18.78140 | 99.52759 | 35957 ft | 426 kts | 268° |
| 2026-05-08 21:53 | 18.77979 | 99.46511 | 35952 ft | 425 kts | 268° |
| 2026-05-08 21:54 | 18.77818 | 99.40311 | 35958 ft | 425 kts | 268° |
| 2026-05-08 21:54 | 18.77655 | 99.34074 | 35952 ft | 424 kts | 268° |
| 2026-05-08 21:55 | 18.77489 | 99.27849 | 35960 ft | 424 kts | 268° |
| 2026-05-08 21:56 | 18.77238 | 99.18543 | 35961 ft | 424 kts | 268° |
| 2026-05-08 21:56 | 18.77068 | 99.12331 | 35966 ft | 424 kts | 268° |
| 2026-05-08 21:57 | 18.76895 | 99.06105 | 35970 ft | 423 kts | 268° |
| 2026-05-08 21:57 | 18.76784 | 98.99889 | 35954 ft | 424 kts | 276° |
| 2026-05-08 21:57 | 18.77503 | 98.96883 | 35979 ft | 424 kts | 292° |
| 2026-05-08 21:58 | 18.78976 | 98.94189 | 35957 ft | 427 kts | 308° |
| 2026-05-08 21:58 | 18.83386 | 98.89977 | 35971 ft | 429 kts | 319° |
| 2026-05-08 21:59 | 18.88046 | 98.86014 | 35969 ft | 431 kts | 319° |
| 2026-05-08 21:59 | 18.92661 | 98.82023 | 35973 ft | 433 kts | 319° |
| 2026-05-08 22:00 | 18.97302 | 98.77947 | 35973 ft | 434 kts | 318° |
| 2026-05-08 22:00 | 19.01952 | 98.73846 | 35986 ft | 436 kts | 318° |
| 2026-05-08 22:01 | 19.06624 | 98.69728 | 35980 ft | 437 kts | 318° |
| 2026-05-08 22:01 | 19.11303 | 98.65601 | 35988 ft | 438 kts | 318° |
| 2026-05-08 22:02 | 19.15987 | 98.61466 | 35988 ft | 438 kts | 318° |
| 2026-05-08 22:02 | 19.20648 | 98.57349 | 35974 ft | 433 kts | 318° |
| 2026-05-08 22:03 | 19.25263 | 98.53270 | 35982 ft | 432 kts | 318° |
| 2026-05-08 22:03 | 19.29869 | 98.49195 | 35994 ft | 431 kts | 318° |
| 2026-05-08 22:04 | 19.34436 | 98.45151 | 35996 ft | 431 kts | 318° |
| 2026-05-08 22:04 | 19.39030 | 98.41080 | 35989 ft | 431 kts | 318° |
| 2026-05-08 22:05 | 19.43628 | 98.37002 | 35995 ft | 431 kts | 318° |
| 2026-05-08 22:05 | 19.48223 | 98.32923 | 35990 ft | 431 kts | 317° |
| 2026-05-08 22:06 | 19.52826 | 98.28834 | 35990 ft | 432 kts | 318° |
| 2026-05-08 22:06 | 19.57439 | 98.24732 | 35990 ft | 433 kts | 318° |
| 2026-05-08 22:07 | 19.62063 | 98.20619 | 35988 ft | 434 kts | 317° |
| 2026-05-08 22:07 | 19.66690 | 98.16499 | 35986 ft | 435 kts | 317° |
| 2026-05-08 22:08 | 19.71329 | 98.12365 | 35987 ft | 435 kts | 317° |
| 2026-05-08 22:08 | 19.75936 | 98.08256 | 35983 ft | 436 kts | 317° |
| 2026-05-08 22:09 | 19.80584 | 98.04108 | 35976 ft | 435 kts | 317° |
| 2026-05-08 22:09 | 19.85242 | 97.99992 | 35979 ft | 435 kts | 317° |
| 2026-05-08 22:10 | 19.89904 | 97.95889 | 35971 ft | 435 kts | 317° |
| 2026-05-08 22:10 | 19.94564 | 97.91781 | 35967 ft | 435 kts | 317° |
| 2026-05-08 22:11 | 19.99208 | 97.87680 | 35958 ft | 433 kts | 317° |
| 2026-05-08 22:11 | 20.03835 | 97.83588 | 35978 ft | 432 kts | 317° |
| 2026-05-08 22:12 | 20.08432 | 97.79518 | 35972 ft | 432 kts | 317° |
| 2026-05-08 22:12 | 20.13086 | 97.75395 | 35965 ft | 433 kts | 317° |
| 2026-05-08 22:13 | 20.17685 | 97.71318 | 35974 ft | 433 kts | 317° |
| 2026-05-08 22:13 | 20.22316 | 97.67209 | 35974 ft | 433 kts | 317° |
| 2026-05-08 22:14 | 20.26954 | 97.63091 | 35985 ft | 434 kts | 317° |
| 2026-05-08 22:14 | 20.31593 | 97.58968 | 35985 ft | 435 kts | 317° |
| 2026-05-08 22:15 | 20.36240 | 97.54836 | 35990 ft | 436 kts | 317° |
| 2026-05-08 22:15 | 20.40901 | 97.50686 | 35992 ft | 437 kts | 317° |
| 2026-05-08 22:16 | 20.45538 | 97.46556 | 35997 ft | 437 kts | 316° |
| 2026-05-08 22:16 | 20.50201 | 97.42398 | 36000 ft | 437 kts | 316° |
| 2026-05-08 22:17 | 20.54860 | 97.38242 | 35997 ft | 436 kts | 316° |
| 2026-05-08 22:17 | 20.59504 | 97.34096 | 36021 ft | 434 kts | 316° |
| 2026-05-08 22:18 | 20.64143 | 97.29949 | 36013 ft | 435 kts | 316° |
| 2026-05-08 22:18 | 20.68789 | 97.25792 | 36004 ft | 436 kts | 316° |
| 2026-05-08 22:19 | 20.73440 | 97.21629 | 35996 ft | 436 kts | 316° |
| 2026-05-08 22:19 | 20.78085 | 97.17467 | 35997 ft | 435 kts | 315° |
| 2026-05-08 22:20 | 20.82720 | 97.13311 | 35996 ft | 435 kts | 315° |
| 2026-05-08 22:20 | 20.87353 | 97.09154 | 35993 ft | 434 kts | 315° |
| 2026-05-08 22:21 | 20.91939 | 97.05035 | 35993 ft | 433 kts | 315° |
| 2026-05-08 22:21 | 20.96543 | 97.00896 | 35987 ft | 432 kts | 315° |
| 2026-05-08 22:22 | 21.01136 | 96.96764 | 35993 ft | 431 kts | 315° |
| 2026-05-08 22:22 | 21.05725 | 96.92632 | 35983 ft | 430 kts | 315° |
| 2026-05-08 22:23 | 21.10304 | 96.88505 | 35979 ft | 429 kts | 315° |
| 2026-05-08 22:23 | 21.14869 | 96.84388 | 35984 ft | 428 kts | 315° |
| 2026-05-08 22:24 | 21.19417 | 96.80282 | 35979 ft | 427 kts | 314° |
| 2026-05-08 22:24 | 21.23189 | 96.76874 | 35972 ft | 427 kts | 314° |
| 2026-05-08 22:25 | 21.28464 | 96.72105 | 35966 ft | 426 kts | 314° |
| 2026-05-08 22:25 | 21.32254 | 96.68675 | 35963 ft | 425 kts | 314° |
| 2026-05-08 22:26 | 21.36770 | 96.64585 | 35950 ft | 425 kts | 314° |
| 2026-05-08 22:26 | 21.41286 | 96.60492 | 35949 ft | 424 kts | 314° |
| 2026-05-08 22:27 | 21.45761 | 96.56432 | 35948 ft | 424 kts | 314° |
| 2026-05-08 22:27 | 21.50262 | 96.52346 | 35933 ft | 424 kts | 314° |
| 2026-05-08 22:28 | 21.54766 | 96.48253 | 35920 ft | 424 kts | 314° |
| 2026-05-08 22:28 | 21.59260 | 96.44167 | 35905 ft | 423 kts | 314° |
| 2026-05-08 22:29 | 21.63744 | 96.40086 | 35909 ft | 422 kts | 314° |
| 2026-05-08 22:29 | 21.68222 | 96.36006 | 35892 ft | 422 kts | 313° |
| 2026-05-08 22:30 | 21.72734 | 96.31889 | 35907 ft | 429 kts | 313° |
| 2026-05-08 22:30 | 21.77304 | 96.27717 | 35910 ft | 432 kts | 313° |
| 2026-05-08 22:31 | 21.81878 | 96.23543 | 35891 ft | 428 kts | 313° |
| 2026-05-08 22:31 | 21.86389 | 96.19421 | 35886 ft | 422 kts | 313° |
| 2026-05-08 22:32 | 21.90779 | 96.15339 | 35871 ft | 415 kts | 306° |
| 2026-05-08 22:32 | 21.92420 | 96.12869 | 35894 ft | 400 kts | 291° |
| 2026-05-08 22:32 | 21.93472 | 96.10112 | 35885 ft | 397 kts | 282° |
| 2026-05-08 22:32 | 21.94022 | 96.07210 | 35878 ft | 396 kts | 271° |
| 2026-05-08 22:33 | 21.94261 | 96.04246 | 35887 ft | 399 kts | 271° |
| 2026-05-08 22:33 | 21.94740 | 95.98269 | 35878 ft | 401 kts | 271° |
| 2026-05-08 22:34 | 21.95240 | 95.92266 | 35864 ft | 403 kts | 271° |
| 2026-05-08 22:34 | 21.95754 | 95.86255 | 35867 ft | 402 kts | 272° |
| 2026-05-08 22:35 | 21.96270 | 95.80260 | 35866 ft | 401 kts | 272° |
| 2026-05-08 22:35 | 21.96782 | 95.74300 | 35865 ft | 399 kts | 272° |
| 2026-05-08 22:36 | 21.97286 | 95.68408 | 35864 ft | 396 kts | 271° |
| 2026-05-08 22:36 | 21.97786 | 95.62519 | 35866 ft | 394 kts | 271° |
| 2026-05-08 22:37 | 21.98283 | 95.56651 | 35867 ft | 392 kts | 271° |
| 2026-05-08 22:37 | 21.98775 | 95.50813 | 35867 ft | 390 kts | 271° |
| 2026-05-08 22:38 | 21.99264 | 95.44992 | 35868 ft | 390 kts | 271° |
| 2026-05-08 22:38 | 21.99750 | 95.39171 | 35869 ft | 390 kts | 271° |
| 2026-05-08 22:39 | 22.00231 | 95.33380 | 35877 ft | 391 kts | 271° |
| 2026-05-08 22:39 | 22.00716 | 95.27534 | 35873 ft | 392 kts | 271° |
| 2026-05-08 22:40 | 22.01199 | 95.21677 | 35876 ft | 393 kts | 271° |
| 2026-05-08 22:40 | 22.01681 | 95.15800 | 35873 ft | 394 kts | 271° |
| 2026-05-08 22:41 | 22.02161 | 95.09937 | 35873 ft | 395 kts | 271° |
| 2026-05-08 22:41 | 22.02641 | 95.04042 | 35878 ft | 395 kts | 271° |
| 2026-05-08 22:42 | 22.03121 | 94.98131 | 35878 ft | 396 kts | 271° |
| 2026-05-08 22:42 | 22.03598 | 94.92218 | 35874 ft | 396 kts | 271° |
| 2026-05-08 22:43 | 22.04073 | 94.86308 | 35877 ft | 395 kts | 271° |
| 2026-05-08 22:43 | 22.04512 | 94.80815 | 35881 ft | 395 kts | 271° |
| 2026-05-08 22:44 | 22.04972 | 94.75043 | 35886 ft | 394 kts | 271° |
| 2026-05-08 22:44 | 22.05435 | 94.69206 | 35893 ft | 393 kts | 271° |
| 2026-05-08 22:45 | 22.05897 | 94.63348 | 35894 ft | 392 kts | 271° |
| 2026-05-08 22:45 | 22.06357 | 94.57499 | 35901 ft | 391 kts | 271° |
| 2026-05-08 22:46 | 22.06814 | 94.51655 | 35897 ft | 390 kts | 271° |
| 2026-05-08 22:46 | 22.07267 | 94.45825 | 35900 ft | 390 kts | 271° |
| 2026-05-08 22:47 | 22.07718 | 94.40016 | 35921 ft | 388 kts | 271° |
| 2026-05-08 22:47 | 22.08166 | 94.34202 | 35917 ft | 389 kts | 271° |
| 2026-05-08 22:48 | 22.08610 | 94.28415 | 35921 ft | 390 kts | 271° |
| 2026-05-08 22:48 | 22.09055 | 94.22582 | 35911 ft | 390 kts | 271° |
| 2026-05-08 22:49 | 22.09499 | 94.16747 | 35912 ft | 391 kts | 271° |
| 2026-05-08 22:49 | 22.10162 | 94.07969 | 35920 ft | 392 kts | 271° |
| 2026-05-08 22:50 | 22.10603 | 94.02110 | 35926 ft | 392 kts | 271° |
| 2026-05-08 22:50 | 22.11040 | 93.96250 | 35928 ft | 392 kts | 271° |
| 2026-05-08 22:51 | 22.11478 | 93.90384 | 35945 ft | 392 kts | 271° |
| 2026-05-08 22:51 | 22.11910 | 93.84556 | 35948 ft | 392 kts | 271° |
| 2026-05-08 22:52 | 22.12342 | 93.78694 | 35965 ft | 392 kts | 271° |
| 2026-05-08 22:52 | 22.12772 | 93.72842 | 35967 ft | 391 kts | 271° |
| 2026-05-08 22:53 | 22.13198 | 93.66994 | 35979 ft | 391 kts | 271° |
| 2026-05-08 22:53 | 22.13622 | 93.61147 | 35978 ft | 390 kts | 271° |
| 2026-05-08 22:54 | 22.14043 | 93.55322 | 35971 ft | 388 kts | 271° |
| 2026-05-08 22:54 | 22.14460 | 93.49529 | 35989 ft | 387 kts | 271° |
| 2026-05-08 22:55 | 22.14839 | 93.44266 | 35984 ft | 385 kts | 271° |
| 2026-05-08 22:55 | 22.15246 | 93.38550 | 35977 ft | 383 kts | 271° |
| 2026-05-08 22:56 | 22.15649 | 93.32820 | 35973 ft | 382 kts | 271° |
| 2026-05-08 22:56 | 22.16048 | 93.27164 | 35983 ft | 381 kts | 271° |
| 2026-05-08 22:57 | 22.16451 | 93.21409 | 35977 ft | 389 kts | 271° |
| 2026-05-08 22:57 | 22.16857 | 93.15569 | 35958 ft | 391 kts | 271° |
| 2026-05-08 22:58 | 22.17263 | 93.09725 | 35981 ft | 390 kts | 271° |
| 2026-05-08 22:58 | 22.17666 | 93.03918 | 35932 ft | 391 kts | 271° |
| 2026-05-08 22:59 | 22.18069 | 92.98057 | 35934 ft | 392 kts | 271° |
| 2026-05-08 22:59 | 22.18470 | 92.92195 | 35932 ft | 392 kts | 271° |
| 2026-05-08 23:00 | 22.18869 | 92.86339 | 35920 ft | 389 kts | 271° |
| 2026-05-08 23:00 | 22.19262 | 92.80529 | 35905 ft | 386 kts | 271° |
| 2026-05-08 23:01 | 22.19647 | 92.74801 | 35894 ft | 385 kts | 271° |
| 2026-05-08 23:01 | 22.20033 | 92.69048 | 35892 ft | 384 kts | 271° |
| 2026-05-08 23:02 | 22.20412 | 92.63312 | 35893 ft | 383 kts | 270° |
| 2026-05-08 23:02 | 22.20764 | 92.57582 | 35890 ft | 382 kts | 270° |
| 2026-05-08 23:03 | 22.21110 | 92.51855 | 35880 ft | 382 kts | 270° |
| 2026-05-08 23:03 | 22.21455 | 92.46133 | 35873 ft | 381 kts | 270° |
| 2026-05-08 23:04 | 22.21770 | 92.40935 | 35879 ft | 383 kts | 270° |
| 2026-05-08 23:04 | 22.22115 | 92.35197 | 35881 ft | 384 kts | 270° |
| 2026-05-08 23:05 | 22.22460 | 92.29434 | 35880 ft | 385 kts | 270° |
| 2026-05-08 23:05 | 22.22830 | 92.23686 | 35870 ft | 387 kts | 271° |
| 2026-05-08 23:06 | 22.23260 | 92.17884 | 35871 ft | 388 kts | 271° |
| 2026-05-08 23:06 | 22.23689 | 92.12060 | 35865 ft | 389 kts | 271° |
| 2026-05-08 23:07 | 22.24110 | 92.06230 | 35864 ft | 389 kts | 271° |
| 2026-05-08 23:07 | 22.24527 | 92.00402 | 35862 ft | 389 kts | 271° |
| 2026-05-08 23:08 | 22.24941 | 91.94580 | 35865 ft | 388 kts | 271° |
| 2026-05-08 23:08 | 22.25352 | 91.88774 | 35862 ft | 387 kts | 271° |
| 2026-05-08 23:09 | 22.25757 | 91.83015 | 35868 ft | 386 kts | 271° |
| 2026-05-08 23:09 | 22.26342 | 91.77240 | 35863 ft | 387 kts | 274° |
| 2026-05-08 23:10 | 22.27053 | 91.71488 | 35866 ft | 386 kts | 274° |
| 2026-05-08 23:10 | 22.27742 | 91.65743 | 35862 ft | 385 kts | 273° |
| 2026-05-08 23:11 | 22.28408 | 91.60004 | 35866 ft | 385 kts | 273° |
| 2026-05-08 23:11 | 22.29067 | 91.54269 | 35863 ft | 385 kts | 273° |
| 2026-05-08 23:12 | 22.29723 | 91.48531 | 35866 ft | 385 kts | 273° |
| 2026-05-08 23:12 | 22.30378 | 91.42793 | 35869 ft | 385 kts | 273° |
| 2026-05-08 23:13 | 22.31035 | 91.37046 | 35867 ft | 386 kts | 273° |
| 2026-05-08 23:13 | 22.31741 | 91.31294 | 35866 ft | 387 kts | 274° |
| 2026-05-08 23:14 | 22.32459 | 91.25572 | 35869 ft | 387 kts | 274° |
| 2026-05-08 23:14 | 22.33177 | 91.19809 | 35866 ft | 387 kts | 274° |
| 2026-05-08 23:15 | 22.33775 | 91.14973 | 35868 ft | 388 kts | 273° |
| 2026-05-08 23:15 | 22.34482 | 91.09223 | 35701 ft | 390 kts | 273° |
| 2026-05-08 23:16 | 22.34839 | 91.06302 | 35326 ft | 392 kts | 273° |
| 2026-05-08 23:16 | 22.35196 | 91.03390 | 34980 ft | 389 kts | 273° |
| 2026-05-08 23:16 | 22.35550 | 91.00506 | 34648 ft | 386 kts | 273° |
| 2026-05-08 23:16 | 22.35902 | 90.97631 | 34305 ft | 386 kts | 273° |
| 2026-05-08 23:17 | 22.36252 | 90.94754 | 33977 ft | 386 kts | 273° |
| 2026-05-08 23:17 | 22.36602 | 90.91881 | 33615 ft | 385 kts | 273° |
| 2026-05-08 23:17 | 22.36950 | 90.89010 | 33239 ft | 386 kts | 273° |
| 2026-05-08 23:17 | 22.37299 | 90.86132 | 32872 ft | 386 kts | 273° |
| 2026-05-08 23:18 | 22.37648 | 90.83253 | 32506 ft | 387 kts | 272° |
| 2026-05-08 23:18 | 22.37997 | 90.80361 | 32147 ft | 389 kts | 272° |
| 2026-05-08 23:18 | 22.38347 | 90.77455 | 31795 ft | 391 kts | 272° |
| 2026-05-08 23:18 | 22.38699 | 90.74535 | 31445 ft | 393 kts | 272° |
| 2026-05-08 23:19 | 22.39052 | 90.71603 | 31101 ft | 395 kts | 272° |
| 2026-05-08 23:19 | 22.39406 | 90.68653 | 30759 ft | 397 kts | 272° |
| 2026-05-08 23:19 | 22.39762 | 90.65691 | 30424 ft | 399 kts | 272° |
| 2026-05-08 23:19 | 22.40118 | 90.62715 | 30091 ft | 400 kts | 272° |
| 2026-05-08 23:20 | 22.40472 | 90.59762 | 29724 ft | 402 kts | 272° |
| 2026-05-08 23:20 | 22.40830 | 90.56766 | 29332 ft | 403 kts | 272° |
| 2026-05-08 23:20 | 22.41189 | 90.53753 | 28945 ft | 404 kts | 273° |
| 2026-05-08 23:20 | 22.41549 | 90.50736 | 28562 ft | 405 kts | 273° |
| 2026-05-08 23:21 | 22.41908 | 90.47716 | 28186 ft | 406 kts | 273° |
| 2026-05-08 23:21 | 22.42268 | 90.44691 | 27813 ft | 406 kts | 273° |
| 2026-05-08 23:21 | 22.42628 | 90.41653 | 27445 ft | 407 kts | 273° |
| 2026-05-08 23:21 | 22.42988 | 90.38611 | 27080 ft | 408 kts | 273° |
| 2026-05-08 23:22 | 22.43314 | 90.35851 | 26752 ft | 408 kts | 273° |
| 2026-05-08 23:22 | 22.43674 | 90.32802 | 26401 ft | 409 kts | 273° |
| 2026-05-08 23:22 | 22.44033 | 90.29747 | 26049 ft | 411 kts | 273° |
| 2026-05-08 23:22 | 22.44390 | 90.26711 | 25710 ft | 413 kts | 274° |
| 2026-05-08 23:23 | 22.44752 | 90.23624 | 25367 ft | 415 kts | 274° |
| 2026-05-08 23:23 | 22.45117 | 90.20514 | 25028 ft | 416 kts | 274° |
| 2026-05-08 23:23 | 22.45480 | 90.17414 | 24692 ft | 416 kts | 274° |
| 2026-05-08 23:23 | 22.45842 | 90.14315 | 24364 ft | 415 kts | 274° |
| 2026-05-08 23:24 | 22.46203 | 90.11225 | 24029 ft | 413 kts | 274° |
| 2026-05-08 23:24 | 22.46561 | 90.08151 | 23701 ft | 410 kts | 274° |
| 2026-05-08 23:24 | 22.46917 | 90.05099 | 23368 ft | 408 kts | 274° |
| 2026-05-08 23:24 | 22.47269 | 90.02067 | 22969 ft | 405 kts | 274° |
| 2026-05-08 23:25 | 22.47619 | 89.99048 | 22610 ft | 403 kts | 274° |
| 2026-05-08 23:25 | 22.47961 | 89.96087 | 22229 ft | 402 kts | 274° |
| 2026-05-08 23:25 | 22.48306 | 89.93095 | 21856 ft | 400 kts | 274° |
| 2026-05-08 23:25 | 22.48650 | 89.90108 | 21476 ft | 399 kts | 274° |
| 2026-05-08 23:26 | 22.48991 | 89.87138 | 21107 ft | 398 kts | 275° |
| 2026-05-08 23:26 | 22.49332 | 89.84170 | 20744 ft | 397 kts | 275° |
| 2026-05-08 23:26 | 22.49672 | 89.81208 | 20375 ft | 396 kts | 275° |
| 2026-05-08 23:26 | 22.50010 | 89.78253 | 20030 ft | 395 kts | 275° |
| 2026-05-08 23:27 | 22.50346 | 89.75308 | 19677 ft | 394 kts | 275° |
| 2026-05-08 23:27 | 22.50681 | 89.72370 | 19333 ft | 393 kts | 275° |
| 2026-05-08 23:27 | 22.51015 | 89.69440 | 18988 ft | 392 kts | 276° |
| 2026-05-08 23:27 | 22.51347 | 89.66521 | 18650 ft | 390 kts | 276° |
| 2026-05-08 23:28 | 22.51678 | 89.63609 | 18317 ft | 389 kts | 276° |
| 2026-05-08 23:28 | 22.52007 | 89.60705 | 17949 ft | 388 kts | 276° |
| 2026-05-08 23:28 | 22.52335 | 89.57812 | 17565 ft | 386 kts | 276° |
| 2026-05-08 23:28 | 22.52660 | 89.54935 | 17186 ft | 385 kts | 276° |
| 2026-05-08 23:29 | 22.52984 | 89.52069 | 16812 ft | 383 kts | 276° |
| 2026-05-08 23:29 | 22.53305 | 89.49216 | 16433 ft | 381 kts | 276° |
| 2026-05-08 23:29 | 22.53621 | 89.46412 | 16071 ft | 379 kts | 276° |
| 2026-05-08 23:29 | 22.53938 | 89.43589 | 15706 ft | 377 kts | 276° |
| 2026-05-08 23:30 | 22.54253 | 89.40777 | 15339 ft | 375 kts | 276° |
| 2026-05-08 23:30 | 22.54566 | 89.37977 | 14984 ft | 374 kts | 276° |
| 2026-05-08 23:30 | 22.54878 | 89.35187 | 14637 ft | 372 kts | 276° |
| 2026-05-08 23:30 | 22.55187 | 89.32416 | 14291 ft | 370 kts | 276° |
| 2026-05-08 23:31 | 22.55495 | 89.29655 | 13946 ft | 368 kts | 276° |
| 2026-05-08 23:31 | 22.55796 | 89.26943 | 13604 ft | 367 kts | 276° |
| 2026-05-08 23:31 | 22.56100 | 89.24209 | 13216 ft | 365 kts | 276° |
| 2026-05-08 23:31 | 22.56401 | 89.21492 | 12840 ft | 363 kts | 276° |
| 2026-05-08 23:32 | 22.56700 | 89.18787 | 12461 ft | 360 kts | 276° |
| 2026-05-08 23:32 | 22.56996 | 89.16113 | 12087 ft | 355 kts | 276° |
| 2026-05-08 23:32 | 22.57286 | 89.13485 | 11718 ft | 348 kts | 276° |
| 2026-05-08 23:32 | 22.57570 | 89.10912 | 11349 ft | 342 kts | 276° |
| 2026-05-08 23:33 | 22.57848 | 89.08380 | 10990 ft | 336 kts | 276° |
| 2026-05-08 23:33 | 22.58122 | 89.05887 | 10631 ft | 331 kts | 276° |
| 2026-05-08 23:33 | 22.58392 | 89.03426 | 10276 ft | 327 kts | 276° |
| 2026-05-08 23:33 | 22.58658 | 89.00998 | 9947 ft | 322 kts | 276° |
| 2026-05-08 23:34 | 22.58917 | 88.98638 | 9887 ft | 309 kts | 276° |
| 2026-05-08 23:34 | 22.59163 | 88.96386 | 9864 ft | 295 kts | 276° |
| 2026-05-08 23:34 | 22.59399 | 88.94233 | 9854 ft | 281 kts | 277° |
| 2026-05-08 23:34 | 22.59691 | 88.92171 | 9675 ft | 275 kts | 279° |
| 2026-05-08 23:35 | 22.60037 | 88.90144 | 9415 ft | 272 kts | 280° |
| 2026-05-08 23:35 | 22.60387 | 88.88145 | 9164 ft | 269 kts | 280° |
| 2026-05-08 23:35 | 22.60692 | 88.86391 | 8946 ft | 266 kts | 280° |
| 2026-05-08 23:35 | 22.61012 | 88.84535 | 8709 ft | 264 kts | 280° |
| 2026-05-08 23:36 | 22.61339 | 88.82613 | 8459 ft | 262 kts | 279° |
| 2026-05-08 23:36 | 22.61666 | 88.80684 | 8208 ft | 259 kts | 279° |
| 2026-05-08 23:36 | 22.61988 | 88.78773 | 7974 ft | 257 kts | 279° |
| 2026-05-08 23:36 | 22.62307 | 88.76876 | 7734 ft | 255 kts | 279° |
| 2026-05-08 23:37 | 22.62622 | 88.74995 | 7494 ft | 253 kts | 279° |
| 2026-05-08 23:37 | 22.62935 | 88.73128 | 7257 ft | 251 kts | 279° |
| 2026-05-08 23:37 | 22.63242 | 88.71270 | 7021 ft | 249 kts | 277° |
| 2026-05-08 23:37 | 22.63067 | 88.69436 | 6764 ft | 247 kts | 247° |
| 2026-05-08 23:38 | 22.62073 | 88.67954 | 6546 ft | 245 kts | 221° |
| 2026-05-08 23:38 | 22.60606 | 88.67015 | 6325 ft | 245 kts | 206° |
| 2026-05-08 23:38 | 22.59026 | 88.66339 | 6088 ft | 243 kts | 204° |
| 2026-05-08 23:38 | 22.57484 | 88.65589 | 5837 ft | 242 kts | 208° |
| 2026-05-08 23:39 | 22.56019 | 88.64699 | 5590 ft | 240 kts | 213° |
| 2026-05-08 23:39 | 22.54646 | 88.63677 | 5349 ft | 239 kts | 218° |
| 2026-05-08 23:39 | 22.53363 | 88.62540 | 5108 ft | 238 kts | 223° |
| 2026-05-08 23:39 | 22.52186 | 88.61328 | 4875 ft | 237 kts | 226° |
| 2026-05-08 23:40 | 22.51081 | 88.60014 | 4637 ft | 236 kts | 231° |
| 2026-05-08 23:40 | 22.50072 | 88.58623 | 4385 ft | 234 kts | 234° |
| 2026-05-08 23:40 | 22.49164 | 88.57156 | 4144 ft | 233 kts | 239° |
| 2026-05-08 23:40 | 22.48366 | 88.55632 | 3901 ft | 232 kts | 243° |
| 2026-05-08 23:41 | 22.47678 | 88.54054 | 3663 ft | 232 kts | 246° |
| 2026-05-08 23:41 | 22.47102 | 88.52429 | 3424 ft | 231 kts | 251° |
| 2026-05-08 23:41 | 22.46638 | 88.50765 | 3185 ft | 231 kts | 255° |
| 2026-05-08 23:41 | 22.46289 | 88.49072 | 2945 ft | 231 kts | 259° |
| 2026-05-08 23:42 | 22.46042 | 88.47364 | 2700 ft | 230 kts | 262° |
| 2026-05-08 23:42 | 22.45913 | 88.45638 | 2451 ft | 230 kts | 266° |
| 2026-05-08 23:42 | 22.46215 | 88.43957 | 2192 ft | 232 kts | 300° |
| 2026-05-08 23:42 | 22.47387 | 88.42847 | 2039 ft | 225 kts | 342° |
| 2026-05-08 23:43 | 22.48885 | 88.42762 | 2017 ft | 210 kts | 8° |
| 2026-05-08 23:43 | 22.50284 | 88.42959 | 2012 ft | 196 kts | 8° |
| 2026-05-08 23:43 | 22.51636 | 88.43143 | 2020 ft | 193 kts | 8° |
| 2026-05-08 23:43 | 22.52911 | 88.43300 | 1997 ft | 180 kts | 7° |
| 2026-05-08 23:44 | 22.54138 | 88.43445 | 1952 ft | 178 kts | 7° |
| 2026-05-08 23:44 | 22.55354 | 88.43588 | 1730 ft | 173 kts | 7° |
| 2026-05-08 23:44 | 22.56506 | 88.43723 | 1549 ft | 163 kts | 7° |
| 2026-05-08 23:44 | 22.57627 | 88.43855 | 1312 ft | 158 kts | 6° |
| 2026-05-08 23:45 | 22.58693 | 88.43981 | 1095 ft | 150 kts | 6° |
| 2026-05-08 23:45 | 22.59720 | 88.44102 | 923 ft | 147 kts | 6° |
| 2026-05-08 23:45 | 22.60727 | 88.44221 | 742 ft | 143 kts | 5° |
| 2026-05-08 23:45 | 22.61706 | 88.44336 | 567 ft | 140 kts | 6° |
| 2026-05-08 23:46 | 22.62672 | 88.44450 | 380 ft | 138 kts | 5° |
| 2026-05-08 23:46 | 22.63624 | 88.44567 | 196 ft | 140 kts | 6° |
| 2026-05-08 23:46 | 22.64576 | 88.44677 | 29 ft | 137 kts | 5° |
| 2026-05-08 23:46 | 22.65354 | 88.44770 | 28 ft | 55 kts | 6° |
| 2026-05-08 23:47 | 22.65561 | 88.44794 | 29 ft | 18 kts | 6° |
| 2026-05-08 23:47 | 22.65639 | 88.44773 | 30 ft | 8 kts | 287° |
| 2026-05-08 23:47 | 22.65645 | 88.44714 | 30 ft | 8 kts | 276° |
| 2026-05-08 23:47 | 22.65652 | 88.44646 | 29 ft | 11 kts | 276° |
| 2026-05-08 23:48 | 22.65650 | 88.44557 | 29 ft | 12 kts | 245° |
| 2026-05-08 23:48 | 22.65600 | 88.44485 | 28 ft | 12 kts | 207° |
| 2026-05-08 23:48 | 22.65519 | 88.44468 | 28 ft | 12 kts | 185° |
| 2026-05-08 23:48 | 22.65440 | 88.44459 | 28 ft | 11 kts | 187° |
| 2026-05-08 23:49 | 22.65354 | 88.44448 | 28 ft | 14 kts | 186° |
| 2026-05-08 23:49 | 22.65254 | 88.44436 | 27 ft | 15 kts | 186° |
| 2026-05-08 23:49 | 22.65142 | 88.44420 | 27 ft | 17 kts | 200° |
| 2026-05-08 23:49 | 22.65080 | 88.44321 | 27 ft | 16 kts | 244° |
| 2026-05-08 23:50 | 22.65015 | 88.44251 | 28 ft | 13 kts | 191° |
| 2026-05-08 23:50 | 22.64931 | 88.44235 | 28 ft | 11 kts | 211° |
| 2026-05-08 23:50 | 22.64926 | 88.44157 | 28 ft | 9 kts | 278° |
| 2026-05-08 23:50 | 22.64927 | 88.44147 | 28 ft | 0 kts | 278° |